createdAt,value
2019-03-23T00:01:48.150Z,80.90
2019-03-23T00:04:20.439Z,78.28
2019-03-23T00:06:52.694Z,76.00
2019-03-23T00:09:24.842Z,75.78
2019-03-23T00:11:57.790Z,95.22
2019-03-23T00:14:34.925Z,89.67
2019-03-23T00:17:07.390Z,81.32
2019-03-23T00:19:40.415Z,81.82
2019-03-23T00:22:13.211Z,80.80
2019-03-23T00:24:45.334Z,73.52
2019-03-23T00:27:17.340Z,80.80
2019-03-23T00:29:49.878Z,83.33
2019-03-23T00:32:22.260Z,74.67
2019-03-23T00:34:55.068Z,74.45
2019-03-23T00:37:27.311Z,64.17
2019-03-23T00:40:00.606Z,60.88
2019-03-23T00:42:33.129Z,65.15
2019-03-23T00:45:05.811Z,57.95
2019-03-23T00:47:38.137Z,69.22
2019-03-23T00:50:12.980Z,65.92
2019-03-23T00:52:52.157Z,54.80
2019-03-23T00:55:24.093Z,62.48
2019-03-23T00:58:17.843Z,64.50
2019-03-23T01:00:51.255Z,60.10
2019-03-23T01:03:23.510Z,61.15
2019-03-23T01:05:55.629Z,57.03
2019-03-23T01:08:27.739Z,56.63
2019-03-23T01:10:59.950Z,60.20
2019-03-23T01:13:32.187Z,51.88
2019-03-23T01:16:04.045Z,55.83
2019-03-23T01:18:36.592Z,56.90
2019-03-23T01:21:14.939Z,61.58
2019-03-23T01:23:47.469Z,53.05
2019-03-23T01:26:19.644Z,52.73
2019-03-23T01:28:52.117Z,53.17
2019-03-23T01:31:24.369Z,50.85
2019-03-23T01:33:56.384Z,59.45
2019-03-23T01:36:28.709Z,54.98
2019-03-23T01:39:00.836Z,52.45
2019-03-23T01:41:33.189Z,52.88
2019-03-23T01:44:05.219Z,47.78
2019-03-23T01:46:37.358Z,52.43
2019-03-23T01:49:10.862Z,49.77
2019-03-23T01:51:42.843Z,51.50
2019-03-23T01:54:16.454Z,62.60
2019-03-23T01:56:48.475Z,59.50
2019-03-23T01:59:21.053Z,58.00
2019-03-23T02:01:53.864Z,55.67
2019-03-23T02:04:26.348Z,62.27
2019-03-23T02:06:58.392Z,58.33
2019-03-23T02:09:30.503Z,60.63
2019-03-23T02:12:03.163Z,58.30
2019-03-23T02:14:35.985Z,56.45
2019-03-23T02:17:08.266Z,60.52
2019-03-23T02:19:40.209Z,54.67
2019-03-23T02:22:12.806Z,61.48
2019-03-23T02:24:45.128Z,58.38
2019-03-23T02:27:16.973Z,55.20
2019-03-23T02:29:49.197Z,54.98
2019-03-23T02:32:21.312Z,61.77
2019-03-23T02:34:53.354Z,56.20
2019-03-23T02:37:28.114Z,60.78
2019-03-23T02:39:59.166Z,61.18
2019-03-23T02:42:32.452Z,59.18
2019-03-23T02:45:04.745Z,63.28
2019-03-23T02:47:36.820Z,53.45
2019-03-23T02:50:11.316Z,56.23
2019-03-23T02:52:43.435Z,54.30
2019-03-23T02:55:16.606Z,47.78
2019-03-23T02:57:48.702Z,58.13
2019-03-23T03:00:21.593Z,48.70
2019-03-23T03:02:53.859Z,50.83
2019-03-23T03:05:26.614Z,48.02
2019-03-23T03:07:58.932Z,47.65
2019-03-23T03:10:38.761Z,56.75
2019-03-23T03:13:11.254Z,49.80
2019-03-23T03:15:43.860Z,41.85
2019-03-23T03:18:16.058Z,50.58
2019-03-23T03:20:48.110Z,48.23
2019-03-23T03:23:20.558Z,43.08
2019-03-23T03:25:52.724Z,47.75
2019-03-23T03:28:24.773Z,49.23
2019-03-23T03:30:57.305Z,50.00
2019-03-23T03:33:29.794Z,46.08
2019-03-23T03:36:02.350Z,48.05
2019-03-23T03:38:34.669Z,50.35
2019-03-23T03:41:06.780Z,42.58
2019-03-23T03:43:39.367Z,48.00
2019-03-23T03:46:12.579Z,45.15
2019-03-23T03:48:44.466Z,44.58
2019-03-23T03:51:17.882Z,46.60
2019-03-23T03:53:50.136Z,47.03
2019-03-23T03:56:23.586Z,45.12
2019-03-23T03:58:55.445Z,42.38
2019-03-23T04:01:27.575Z,44.98
2019-03-23T04:04:11.873Z,44.67
2019-03-23T04:06:44.172Z,44.30
2019-03-23T04:09:17.037Z,49.15
2019-03-23T04:11:50.050Z,42.62
2019-03-23T04:14:22.146Z,45.98
2019-03-23T04:16:54.984Z,44.40
2019-03-23T04:19:26.902Z,41.85
2019-03-23T04:21:58.923Z,39.38
2019-03-23T04:24:31.175Z,45.90
2019-03-23T04:27:04.594Z,43.78
2019-03-23T04:29:37.327Z,48.80
2019-03-23T04:32:12.229Z,46.23
2019-03-23T04:34:44.467Z,46.83
2019-03-23T04:37:16.687Z,47.10
2019-03-23T04:40:10.076Z,53.92
2019-03-23T04:42:42.137Z,54.85
2019-03-23T04:45:15.331Z,55.80
2019-03-23T04:47:54.552Z,54.98
2019-03-23T04:50:26.781Z,53.80
2019-03-23T04:52:59.172Z,53.35
2019-03-23T04:55:31.522Z,55.23
2019-03-23T04:58:04.442Z,56.70
2019-03-23T05:00:42.332Z,50.83
2019-03-23T05:03:50.989Z,54.88
2019-03-23T05:06:23.603Z,51.58
2019-03-23T05:08:55.944Z,51.08
2019-03-23T05:11:28.015Z,52.62
2019-03-23T05:14:00.431Z,50.92
2019-03-23T05:16:32.894Z,49.30
2019-03-23T05:19:05.016Z,48.52
2019-03-23T05:21:37.180Z,54.93
2019-03-23T05:24:09.665Z,50.23
2019-03-23T05:26:41.673Z,50.70
2019-03-23T05:29:13.747Z,49.38
2019-03-23T05:31:45.912Z,50.10
2019-03-23T05:34:49.401Z,50.60
2019-03-23T05:37:21.882Z,51.37
2019-03-23T05:39:53.949Z,52.13
2019-03-23T05:42:26.222Z,51.35
2019-03-23T05:44:58.490Z,50.48
2019-03-23T05:47:31.248Z,49.75
2019-03-23T05:50:03.169Z,48.75
2019-03-23T05:52:35.068Z,47.78
2019-03-23T05:55:08.575Z,49.00
2019-03-23T05:57:40.365Z,48.55
2019-03-23T06:00:15.541Z,48.35
2019-03-23T06:02:47.676Z,49.35
2019-03-23T06:05:19.965Z,50.05
2019-03-23T06:07:52.340Z,50.67
2019-03-23T06:10:24.523Z,50.23
2019-03-23T06:12:57.041Z,52.73
2019-03-23T06:15:29.079Z,51.73
2019-03-23T06:18:01.323Z,55.70
2019-03-23T06:20:33.782Z,53.52
2019-03-23T06:23:06.139Z,50.20
2019-03-23T06:25:38.371Z,50.35
2019-03-23T06:28:10.822Z,53.10
2019-03-23T06:30:42.820Z,53.15
2019-03-23T06:33:14.939Z,54.83
2019-03-23T06:35:47.263Z,58.95
2019-03-23T06:38:19.734Z,51.85
2019-03-23T06:40:52.104Z,52.20
2019-03-23T06:43:24.431Z,50.85
2019-03-23T06:45:56.925Z,48.30
2019-03-23T06:48:28.795Z,59.67
2019-03-23T06:51:03.223Z,52.15
2019-03-23T06:53:34.892Z,49.83
2019-03-23T06:56:07.404Z,50.20
2019-03-23T06:58:39.574Z,48.55
2019-03-23T07:01:11.713Z,47.45
2019-03-23T07:03:48.441Z,47.78
2019-03-23T07:06:20.792Z,41.70
2019-03-23T07:08:53.670Z,43.95
2019-03-23T07:11:25.814Z,45.83
2019-03-23T07:13:57.983Z,48.58
2019-03-23T07:16:30.277Z,49.73
2019-03-23T07:19:02.285Z,49.08
2019-03-23T07:21:34.119Z,48.10
2019-03-23T07:24:06.331Z,48.05
2019-03-23T07:26:38.524Z,50.28
2019-03-23T07:29:10.642Z,48.38
2019-03-23T07:31:43.197Z,48.87
2019-03-23T07:34:15.653Z,49.83
2019-03-23T07:36:48.722Z,47.80
2019-03-23T07:39:27.246Z,48.33
2019-03-23T07:41:54.867Z,47.08
2019-03-23T07:44:27.211Z,48.58
2019-03-23T07:46:59.609Z,47.67
2019-03-23T07:49:31.797Z,48.25
2019-03-23T07:52:04.420Z,47.70
2019-03-23T07:54:36.605Z,45.17
2019-03-23T07:57:08.701Z,46.98
2019-03-23T07:59:40.727Z,49.13
2019-03-23T08:02:13.058Z,47.35
2019-03-23T08:04:45.875Z,47.90
2019-03-23T08:07:18.341Z,47.40
2019-03-23T08:09:50.799Z,48.90
2019-03-23T08:12:23.481Z,47.15
2019-03-23T08:14:55.435Z,47.90
2019-03-23T08:17:28.126Z,49.30
2019-03-23T08:20:00.466Z,50.25
2019-03-23T08:22:32.269Z,46.95
2019-03-23T08:25:11.637Z,45.65
2019-03-23T08:27:43.777Z,36.23
2019-03-23T08:30:15.915Z,35.08
2019-03-23T08:35:49.677Z,36.35
2019-03-23T08:38:41.407Z,33.10
2019-03-23T08:41:13.445Z,34.90
2019-03-23T08:43:45.355Z,35.45
2019-03-23T08:46:18.375Z,35.20
2019-03-23T08:48:51.511Z,37.85
2019-03-23T08:51:23.895Z,30.72
2019-03-23T08:53:55.784Z,35.33
2019-03-23T08:56:28.478Z,30.20
2019-03-23T08:59:00.595Z,29.75
2019-03-23T09:01:33.156Z,31.80
2019-03-23T09:04:05.159Z,35.10
2019-03-23T09:06:38.171Z,29.20
2019-03-23T09:09:12.045Z,31.55
2019-03-23T09:11:45.282Z,30.08
2019-03-23T09:14:17.295Z,30.80
2019-03-23T09:16:49.574Z,31.48
2019-03-23T09:19:21.471Z,32.17
2019-03-23T09:21:53.478Z,33.18
2019-03-23T09:24:25.455Z,32.95
2019-03-23T09:26:58.287Z,39.58
2019-03-23T09:29:30.320Z,35.85
2019-03-23T09:32:02.709Z,42.25
2019-03-23T09:34:34.703Z,36.25
2019-03-23T09:37:06.900Z,37.60
2019-03-23T09:39:38.888Z,38.40
2019-03-23T09:42:11.531Z,35.68
2019-03-23T09:44:47.173Z,37.65
2019-03-23T09:47:19.875Z,34.43
2019-03-23T09:49:52.037Z,32.65
2019-03-23T09:52:24.654Z,33.25
2019-03-23T09:54:57.122Z,36.28
2019-03-23T09:57:29.217Z,35.30
2019-03-23T10:00:01.783Z,35.55
2019-03-23T10:02:34.434Z,35.68
2019-03-23T10:05:08.712Z,34.40
2019-03-23T10:07:40.509Z,39.15
2019-03-23T10:10:21.725Z,39.18
2019-03-23T10:12:48.384Z,40.83
2019-03-23T10:15:26.591Z,39.95
2019-03-23T10:18:01.548Z,37.38
2019-03-23T10:20:32.866Z,37.30
2019-03-23T10:23:05.442Z,41.70
2019-03-23T10:25:37.921Z,38.48
2019-03-23T10:28:10.896Z,42.20
2019-03-23T10:30:43.127Z,39.27
2019-03-23T10:33:15.178Z,62.75
2019-03-23T10:35:47.352Z,45.95
2019-03-23T10:38:19.433Z,86.92
2019-03-23T10:40:52.512Z,54.93
2019-03-23T10:43:24.774Z,45.60
2019-03-23T10:45:57.139Z,39.63
2019-03-23T10:48:29.212Z,41.68
2019-03-23T10:51:01.216Z,39.90
2019-03-23T10:53:33.564Z,40.43
2019-03-23T10:56:06.289Z,35.83
2019-03-23T10:58:38.225Z,37.88
2019-03-23T11:01:10.771Z,42.27
2019-03-23T11:03:42.948Z,37.33
2019-03-23T11:06:24.478Z,36.70
2019-03-23T11:08:56.747Z,42.58
2019-03-23T11:11:29.783Z,43.60
2019-03-23T11:14:21.474Z,43.73
2019-03-23T11:16:53.894Z,43.45
2019-03-23T11:19:25.768Z,38.88
2019-03-23T11:21:57.976Z,41.18
2019-03-23T11:24:33.334Z,40.35
2019-03-23T11:27:05.535Z,45.65
2019-03-23T11:29:38.435Z,38.92
2019-03-23T11:32:11.805Z,42.03
2019-03-23T11:34:43.915Z,44.88
2019-03-23T11:37:15.863Z,46.08
2019-03-23T11:39:48.588Z,41.63
2019-03-23T11:42:20.800Z,43.55
2019-03-23T11:45:13.373Z,51.25
2019-03-23T11:47:45.786Z,56.77
2019-03-23T11:50:18.178Z,50.70
2019-03-23T11:52:50.504Z,56.00
2019-03-23T11:55:22.352Z,53.83
2019-03-23T11:57:54.315Z,46.40
2019-03-23T12:00:27.165Z,47.35
2019-03-23T12:02:59.190Z,49.25
2019-03-23T12:05:31.843Z,49.40
2019-03-23T12:08:04.103Z,50.80
2019-03-23T12:10:36.049Z,52.65
2019-03-23T12:13:09.586Z,52.50
2019-03-23T12:15:42.080Z,54.98
2019-03-23T12:18:14.479Z,56.63
2019-03-23T12:20:46.645Z,60.58
2019-03-23T12:23:19.118Z,67.45
2019-03-23T12:25:51.165Z,74.50
2019-03-23T12:28:23.464Z,82.85
2019-03-23T12:30:55.458Z,68.97
2019-03-23T12:33:27.476Z,77.22
2019-03-23T12:36:00.284Z,76.05
2019-03-23T12:38:32.097Z,68.47
2019-03-23T12:41:22.738Z,68.95
2019-03-23T12:44:04.533Z,56.90
2019-03-23T12:46:37.023Z,59.13
2019-03-23T12:49:09.068Z,67.65
2019-03-23T12:51:45.703Z,69.40
2019-03-23T12:54:17.726Z,56.42
2019-03-23T12:56:49.859Z,56.35
2019-03-23T12:59:22.149Z,51.13
2019-03-23T13:01:54.262Z,62.17
2019-03-23T13:04:26.912Z,61.65
2019-03-23T13:07:00.027Z,59.75
2019-03-23T13:09:32.059Z,73.65
2019-03-23T13:12:04.191Z,57.60
2019-03-23T13:14:38.339Z,61.73
2019-03-23T13:17:12.009Z,61.28
2019-03-23T13:19:44.064Z,61.45
2019-03-23T13:22:16.107Z,58.65
2019-03-23T13:24:48.073Z,61.20
2019-03-23T13:27:20.517Z,53.33
2019-03-23T13:29:52.909Z,64.27
2019-03-23T13:32:24.911Z,63.45
2019-03-23T13:35:17.140Z,59.95
2019-03-23T13:37:49.372Z,64.53
2019-03-23T13:40:21.681Z,64.35
2019-03-23T13:42:53.568Z,53.38
2019-03-23T13:45:26.312Z,65.28
2019-03-23T13:47:58.327Z,59.10
2019-03-23T13:50:32.470Z,60.17
2019-03-23T13:53:08.862Z,59.30
2019-03-23T13:55:41.032Z,70.28
2019-03-23T13:58:15.561Z,58.68
2019-03-23T14:00:48.857Z,53.38
2019-03-23T14:03:21.155Z,50.48
2019-03-23T14:05:53.391Z,55.50
2019-03-23T14:08:25.305Z,60.12
2019-03-23T14:10:57.369Z,59.05
2019-03-23T14:13:29.311Z,52.88
2019-03-23T14:16:02.222Z,59.88
2019-03-23T14:18:35.867Z,53.50
2019-03-23T14:21:07.915Z,56.80
2019-03-23T14:23:40.198Z,54.13
2019-03-23T14:26:12.448Z,67.05
2019-03-23T14:28:44.480Z,71.55
2019-03-23T14:31:16.511Z,58.95
2019-03-23T14:33:48.680Z,60.52
2019-03-23T14:36:21.224Z,57.10
2019-03-23T14:38:54.150Z,53.05
2019-03-23T14:41:26.373Z,57.60
2019-03-23T14:43:58.195Z,56.60
2019-03-23T14:46:49.100Z,66.17
2019-03-23T14:49:21.291Z,54.10
2019-03-23T14:51:53.671Z,60.33
2019-03-23T14:54:25.967Z,60.08
2019-03-23T14:56:58.989Z,52.35
2019-03-23T14:59:31.067Z,54.42
2019-03-23T15:02:03.516Z,53.75
2019-03-23T15:04:35.972Z,52.15
2019-03-23T15:07:08.366Z,59.13
2019-03-23T15:09:40.671Z,48.95
2019-03-23T15:12:15.291Z,50.90
2019-03-23T15:14:47.237Z,49.85
2019-03-23T15:17:20.090Z,53.45
2019-03-23T15:19:52.187Z,49.53
2019-03-23T15:22:24.026Z,50.48
2019-03-23T15:24:56.179Z,51.90
2019-03-23T15:27:28.341Z,53.05
2019-03-23T15:30:00.309Z,48.63
2019-03-23T15:32:51.578Z,57.58
2019-03-23T15:35:24.045Z,63.48
2019-03-23T15:37:56.134Z,60.60
2019-03-23T15:40:28.591Z,76.57
2019-03-23T15:43:01.701Z,108.85
2019-03-23T15:45:33.914Z,109.90
2019-03-23T15:48:06.370Z,100.25
2019-03-23T15:50:38.111Z,104.87
2019-03-23T15:53:10.329Z,106.65
2019-03-23T15:55:42.836Z,93.17
2019-03-23T15:58:14.788Z,92.72
2019-03-23T16:00:46.829Z,87.78
2019-03-23T16:03:18.948Z,84.32
2019-03-23T16:05:51.011Z,81.25
2019-03-23T16:08:22.832Z,74.30
2019-03-23T16:10:55.517Z,76.87
2019-03-23T16:13:27.868Z,67.75
2019-03-23T16:16:09.418Z,73.72
2019-03-23T16:18:42.580Z,68.17
2019-03-23T16:21:16.817Z,77.17
2019-03-23T16:23:49.116Z,75.40
2019-03-23T16:26:21.007Z,69.82
2019-03-23T16:28:53.088Z,62.40
2019-03-23T16:31:25.863Z,70.90
2019-03-23T16:33:58.377Z,75.30
2019-03-23T16:36:30.649Z,64.22
2019-03-23T16:39:22.080Z,57.20
2019-03-23T16:41:54.036Z,57.17
2019-03-23T16:44:26.444Z,67.40
2019-03-23T16:46:58.743Z,57.00
2019-03-23T16:49:30.979Z,55.40
2019-03-23T16:52:03.144Z,66.42
2019-03-23T16:54:35.651Z,55.60
2019-03-23T16:57:07.647Z,58.87
2019-03-23T16:59:40.248Z,60.95
2019-03-23T17:02:13.143Z,53.78
2019-03-23T17:04:45.367Z,65.42
2019-03-23T17:07:18.919Z,54.60
2019-03-23T17:09:50.857Z,52.43
2019-03-23T17:12:22.968Z,54.58
2019-03-23T17:14:55.111Z,55.73
2019-03-23T17:17:27.371Z,53.65
2019-03-23T17:20:00.417Z,48.28
2019-03-23T17:22:32.303Z,53.38
2019-03-23T17:25:05.797Z,38.33
2019-03-23T17:27:37.825Z,42.30
2019-03-23T17:30:12.739Z,43.15
2019-03-23T17:32:44.483Z,49.40
2019-03-23T17:35:16.526Z,42.20
2019-03-23T17:37:48.619Z,40.08
2019-03-23T17:40:21.215Z,36.80
2019-03-23T17:42:53.584Z,33.28
2019-03-23T17:45:26.260Z,34.00
2019-03-23T17:47:58.301Z,44.27
2019-03-23T17:50:30.270Z,39.03
2019-03-23T17:53:02.491Z,38.23
2019-03-23T17:55:34.505Z,36.35
2019-03-23T17:58:06.542Z,32.17
2019-03-23T18:00:39.444Z,38.33
2019-03-23T18:03:11.540Z,32.35
2019-03-23T18:05:43.811Z,38.38
2019-03-23T18:08:16.297Z,37.33
2019-03-23T18:10:48.880Z,40.58
2019-03-23T18:13:21.618Z,38.55
2019-03-23T18:15:55.783Z,40.05
2019-03-23T18:18:28.042Z,34.33
2019-03-23T18:21:00.685Z,35.73
2019-03-23T18:23:32.948Z,34.35
2019-03-23T18:26:05.547Z,48.28
2019-03-23T18:28:41.037Z,37.30
2019-03-23T18:31:13.129Z,38.05
2019-03-23T18:33:46.543Z,36.73
2019-03-23T18:36:18.986Z,35.45
2019-03-23T18:38:51.196Z,37.50
2019-03-23T18:41:23.533Z,34.65
2019-03-23T18:43:55.679Z,34.20
2019-03-23T18:46:27.812Z,36.98
2019-03-23T18:49:00.642Z,34.43
2019-03-23T18:51:32.795Z,35.60
2019-03-23T18:54:05.363Z,34.23
2019-03-23T18:56:37.661Z,35.03
2019-03-23T18:59:09.822Z,42.73
2019-03-23T19:01:41.765Z,35.75
2019-03-23T19:04:14.397Z,35.83
2019-03-23T19:06:46.480Z,35.40
2019-03-23T19:09:18.513Z,35.73
2019-03-23T19:11:50.631Z,37.25
2019-03-23T19:14:22.760Z,35.20
2019-03-23T19:16:55.139Z,40.23
2019-03-23T19:19:27.536Z,42.08
2019-03-23T19:22:01.580Z,34.53
2019-03-23T19:24:33.772Z,35.65
2019-03-23T19:27:06.041Z,34.55
2019-03-23T19:29:38.102Z,38.63
2019-03-23T19:32:11.000Z,38.33
2019-03-23T19:34:43.129Z,34.98
2019-03-23T19:37:15.477Z,35.98
2019-03-23T19:39:47.682Z,38.88
2019-03-23T19:42:20.479Z,35.13
2019-03-23T19:44:52.659Z,37.13
2019-03-23T19:47:25.023Z,36.23
2019-03-23T19:49:57.609Z,36.13
2019-03-23T19:52:29.931Z,35.38
2019-03-23T19:55:02.103Z,37.93
2019-03-23T19:57:34.092Z,35.75
2019-03-23T20:00:08.570Z,38.08
2019-03-23T20:02:40.622Z,37.48
2019-03-23T20:05:12.961Z,40.70
2019-03-23T20:07:45.133Z,36.08
2019-03-23T20:10:18.299Z,37.00
2019-03-23T20:12:51.338Z,37.15
2019-03-23T20:15:23.337Z,39.85
2019-03-23T20:17:55.660Z,38.08
2019-03-23T20:20:27.693Z,39.00
2019-03-23T20:23:00.275Z,39.13
2019-03-23T20:25:32.551Z,38.02
2019-03-23T20:28:04.799Z,39.67
2019-03-23T20:30:37.098Z,38.60
2019-03-23T20:33:19.103Z,39.55
2019-03-23T20:35:43.692Z,41.65
2019-03-23T20:38:16.290Z,38.67
2019-03-23T20:40:48.299Z,49.48
2019-03-23T20:43:20.689Z,42.33
2019-03-23T20:45:52.908Z,39.30
2019-03-23T20:48:25.414Z,37.55
2019-03-23T20:50:57.564Z,39.92
2019-03-23T20:53:30.132Z,37.15
2019-03-23T20:56:05.181Z,40.58
2019-03-23T20:58:37.738Z,38.67
2019-03-23T21:01:09.938Z,39.00
2019-03-23T21:03:42.220Z,43.52
2019-03-23T21:06:14.251Z,43.28
2019-03-23T21:08:46.651Z,39.63
2019-03-23T21:11:18.845Z,39.42
2019-03-23T21:13:51.624Z,41.15
2019-03-23T21:16:23.667Z,39.63
2019-03-23T21:18:56.363Z,39.38
2019-03-23T21:21:28.404Z,39.45
2019-03-23T21:24:01.303Z,44.88
2019-03-23T21:26:33.761Z,42.30
2019-03-23T21:29:05.768Z,38.70
2019-03-23T21:31:37.858Z,40.17
2019-03-23T21:34:10.200Z,38.58
2019-03-23T21:36:42.249Z,39.75
2019-03-23T21:39:14.130Z,40.03
2019-03-23T21:41:46.719Z,38.45
2019-03-23T21:44:19.256Z,39.03
2019-03-23T21:46:51.114Z,38.10
2019-03-23T21:49:23.507Z,40.10
2019-03-23T21:51:56.905Z,40.63
2019-03-23T21:54:29.376Z,38.17
2019-03-23T21:57:01.484Z,42.23
2019-03-23T21:59:33.529Z,41.23
2019-03-23T22:02:06.110Z,41.02
2019-03-23T22:04:40.210Z,41.00
2019-03-23T22:07:12.988Z,40.17
2019-03-23T22:09:44.922Z,50.17
2019-03-23T22:12:17.425Z,42.20
2019-03-23T22:14:49.902Z,39.92
2019-03-23T22:17:21.873Z,40.90
2019-03-23T22:19:54.049Z,40.12
2019-03-23T22:22:26.213Z,39.95
2019-03-23T22:24:58.625Z,39.33
2019-03-23T22:27:30.562Z,37.83
2019-03-23T22:30:02.855Z,38.85
2019-03-23T22:32:36.108Z,40.52
2019-03-23T22:35:10.119Z,40.70
2019-03-23T22:37:42.240Z,40.75
2019-03-23T22:40:16.346Z,39.25
2019-03-23T22:42:48.359Z,37.80
2019-03-23T22:45:20.979Z,40.17
2019-03-23T22:47:53.209Z,40.50
2019-03-23T22:50:25.248Z,46.13
2019-03-23T22:52:57.410Z,41.63
2019-03-23T22:55:29.783Z,40.28
2019-03-23T22:58:01.877Z,38.60
2019-03-23T23:00:35.504Z,39.45
2019-03-23T23:03:07.505Z,39.27
2019-03-23T23:05:39.609Z,42.23
2019-03-23T23:08:12.054Z,37.98
2019-03-23T23:10:44.329Z,41.50
2019-03-23T23:13:16.502Z,42.00
2019-03-23T23:15:49.184Z,38.83
2019-03-23T23:18:21.295Z,37.17
2019-03-23T23:20:53.423Z,39.85
2019-03-23T23:23:26.266Z,39.70
2019-03-23T23:25:59.094Z,39.38
2019-03-23T23:28:31.269Z,39.78
2019-03-23T23:31:03.794Z,41.05
2019-03-23T23:33:35.883Z,46.30
2019-03-23T23:36:08.147Z,42.62
2019-03-23T23:38:40.586Z,40.35
2019-03-23T23:41:13.021Z,39.83
2019-03-23T23:43:45.062Z,39.13
2019-03-23T23:46:17.823Z,47.05
2019-03-23T23:48:51.549Z,44.70
2019-03-23T23:51:23.975Z,40.30
2019-03-23T23:53:56.058Z,49.50
2019-03-23T23:56:28.428Z,41.45
2019-03-23T23:59:00.927Z,46.65
